createdAt,value
2022-12-03T00:00:13.499Z,21.13
2022-12-03T00:04:06.046Z,22.65
2022-12-03T00:07:58.678Z,22.15
2022-12-03T00:11:51.443Z,23.48
2022-12-03T00:15:43.944Z,22.05
2022-12-03T00:19:36.973Z,21.45
2022-12-03T00:23:29.601Z,22.58
2022-12-03T00:27:22.298Z,21.45
2022-12-03T00:31:14.866Z,22.05
2022-12-03T00:35:07.835Z,22.48
2022-12-03T00:39:00.200Z,23.73
2022-12-03T00:42:52.772Z,22.50
2022-12-03T00:46:45.539Z,20.90
2022-12-03T00:50:38.654Z,21.15
2022-12-03T00:54:32.333Z,19.55
2022-12-03T00:58:24.997Z,20.92
2022-12-03T01:02:17.706Z,19.58
2022-12-03T01:06:10.616Z,20.52
2022-12-03T01:10:04.451Z,20.75
2022-12-03T01:13:56.992Z,20.63
2022-12-03T01:17:49.520Z,20.73
2022-12-03T01:21:47.871Z,20.67
2022-12-03T01:25:40.441Z,21.48
2022-12-03T01:29:32.872Z,20.50
2022-12-03T01:33:25.348Z,20.17
2022-12-03T01:37:18.762Z,19.95
2022-12-03T01:41:12.201Z,19.92
2022-12-03T01:45:05.921Z,20.00
2022-12-03T01:48:58.576Z,21.35
2022-12-03T01:52:52.262Z,20.25
2022-12-03T01:56:45.656Z,20.70
2022-12-03T02:00:38.333Z,21.45
2022-12-03T02:04:31.100Z,19.67
2022-12-03T02:08:39.360Z,19.75
2022-12-03T02:12:34.356Z,21.83
2022-12-03T02:16:26.926Z,21.30
2022-12-03T02:20:20.048Z,20.88
2022-12-03T02:24:43.880Z,20.55
2022-12-03T02:28:36.654Z,21.67
2022-12-03T02:32:29.314Z,21.27
2022-12-03T02:36:22.087Z,20.92
2022-12-03T02:40:19.548Z,21.85
2022-12-03T02:44:12.364Z,20.27
2022-12-03T02:48:38.349Z,19.95
2022-12-03T02:52:31.170Z,20.08
2022-12-03T02:56:29.694Z,21.23
2022-12-03T03:00:23.080Z,21.52
2022-12-03T03:04:15.768Z,20.85
2022-12-03T03:08:09.928Z,20.48
2022-12-03T03:12:02.544Z,20.88
2022-12-03T03:15:55.787Z,22.23
2022-12-03T03:19:48.285Z,21.73
2022-12-03T03:23:40.781Z,21.30
2022-12-03T03:27:34.092Z,20.80
2022-12-03T03:31:26.908Z,23.55
2022-12-03T03:35:19.584Z,22.90
2022-12-03T03:39:12.533Z,22.63
2022-12-03T03:43:06.207Z,23.75
2022-12-03T03:46:58.871Z,23.13
2022-12-03T03:50:52.411Z,23.45
2022-12-03T03:54:45.216Z,22.63
2022-12-03T03:58:38.234Z,24.10
2022-12-03T04:02:32.385Z,22.70
2022-12-03T04:06:24.895Z,23.58
2022-12-03T04:10:36.021Z,23.73
2022-12-03T04:14:28.569Z,23.27
2022-12-03T04:18:40.075Z,25.02
2022-12-03T04:22:41.655Z,22.85
2022-12-03T04:26:53.071Z,24.33
2022-12-03T04:30:45.551Z,24.55
2022-12-03T04:34:57.131Z,24.02
2022-12-03T04:38:49.805Z,24.55
2022-12-03T04:42:42.210Z,23.90
2022-12-03T04:46:34.752Z,23.27
2022-12-03T04:50:27.144Z,25.75
2022-12-03T04:54:19.703Z,22.58
2022-12-03T04:58:12.079Z,25.55
2022-12-03T05:02:06.038Z,26.52
2022-12-03T05:05:58.674Z,23.98
2022-12-03T05:09:52.094Z,23.02
2022-12-03T05:13:44.728Z,23.27
2022-12-03T05:17:37.110Z,24.42
2022-12-03T05:21:29.738Z,24.08
2022-12-03T05:25:22.492Z,26.38
2022-12-03T05:29:15.576Z,25.67
2022-12-03T05:33:08.114Z,23.70
2022-12-03T05:37:00.817Z,23.80
2022-12-03T05:40:53.447Z,25.27
2022-12-03T05:44:45.928Z,24.35
2022-12-03T05:48:38.585Z,23.65
2022-12-03T05:52:30.951Z,23.80
2022-12-03T05:56:23.548Z,22.92
2022-12-03T06:00:27.165Z,23.02
2022-12-03T06:04:19.674Z,22.20
2022-12-03T06:08:12.184Z,24.27
2022-12-03T06:12:06.643Z,23.02
2022-12-03T06:15:59.429Z,23.83
2022-12-03T06:19:52.421Z,27.25
2022-12-03T06:23:45.048Z,24.92
2022-12-03T06:27:37.661Z,24.85
2022-12-03T06:31:30.210Z,23.10
2022-12-03T06:35:23.022Z,26.02
2022-12-03T06:39:16.483Z,22.85
2022-12-03T06:43:09.560Z,24.35
2022-12-03T06:47:02.470Z,22.52
2022-12-03T06:50:54.871Z,22.40
2022-12-03T06:54:47.439Z,22.15
2022-12-03T06:58:40.245Z,22.90
2022-12-03T07:02:33.050Z,21.73
2022-12-03T07:06:25.613Z,23.00
2022-12-03T07:10:19.549Z,22.05
2022-12-03T07:14:12.509Z,22.35
2022-12-03T07:18:05.378Z,22.63
2022-12-03T07:21:58.183Z,21.95
2022-12-03T07:25:50.726Z,24.08
2022-12-03T07:29:43.608Z,22.48
2022-12-03T07:33:36.060Z,23.10
2022-12-03T07:37:28.636Z,23.90
2022-12-03T07:41:21.489Z,21.33
2022-12-03T07:45:14.031Z,21.13
2022-12-03T07:49:06.471Z,21.63
2022-12-03T07:52:59.319Z,21.40
2022-12-03T07:56:55.506Z,21.88
2022-12-03T08:00:52.344Z,20.55
2022-12-03T08:04:44.898Z,20.95
2022-12-03T08:08:37.412Z,20.85
2022-12-03T08:12:43.063Z,21.13
2022-12-03T08:16:37.870Z,21.42
2022-12-03T08:20:35.118Z,22.00
2022-12-03T08:24:27.756Z,22.88
2022-12-03T08:28:26.800Z,22.73
2022-12-03T08:32:19.629Z,21.52
2022-12-03T08:36:29.766Z,22.95
2022-12-03T08:40:35.608Z,24.63
2022-12-03T08:44:32.792Z,21.05
2022-12-03T08:48:37.026Z,21.65
2022-12-03T08:52:34.561Z,22.30
2022-12-03T09:00:23.737Z,20.60
2022-12-03T09:04:41.090Z,22.90
2022-12-03T09:08:33.671Z,32.33
2022-12-03T09:12:26.375Z,24.90
2022-12-03T09:16:19.979Z,21.60
2022-12-03T09:20:12.635Z,21.50
2022-12-03T09:24:05.487Z,21.35
2022-12-03T09:27:57.991Z,24.60
2022-12-03T09:31:50.785Z,21.40
2022-12-03T09:35:43.498Z,22.65
2022-12-03T09:39:36.352Z,22.33
2022-12-03T09:44:02.836Z,23.42
2022-12-03T09:47:49.286Z,22.20
2022-12-03T09:51:42.207Z,21.70
2022-12-03T09:55:34.960Z,20.13
2022-12-03T09:59:31.695Z,23.48
2022-12-03T10:03:30.089Z,22.10
2022-12-03T10:07:38.196Z,22.23
2022-12-03T10:11:31.675Z,21.65
2022-12-03T10:15:25.014Z,22.60
2022-12-03T10:19:27.689Z,22.35
2022-12-03T10:23:26.206Z,22.23
2022-12-03T10:27:30.046Z,20.63
2022-12-03T10:31:36.179Z,20.63
2022-12-03T10:35:41.392Z,21.13
2022-12-03T10:39:56.855Z,21.67
2022-12-03T10:43:49.443Z,20.88
2022-12-03T10:47:43.274Z,21.55
2022-12-03T10:51:38.132Z,21.85
2022-12-03T10:55:37.709Z,21.67
2022-12-03T10:59:33.269Z,21.95
2022-12-03T11:03:28.460Z,23.08
2022-12-03T11:07:22.307Z,23.42
2022-12-03T11:11:23.804Z,22.65
2022-12-03T11:15:16.876Z,21.40
2022-12-03T11:19:39.362Z,25.83
2022-12-03T11:23:47.120Z,23.88
2022-12-03T11:27:40.472Z,19.73
2022-12-03T11:31:37.804Z,19.85
2022-12-03T11:35:58.182Z,20.48
2022-12-03T11:39:51.073Z,20.30
2022-12-03T11:43:52.943Z,21.33
2022-12-03T11:48:12.147Z,21.63
2022-12-03T11:52:20.180Z,22.25
2022-12-03T11:56:19.087Z,21.52
2022-12-03T12:00:23.821Z,22.02
2022-12-03T12:04:38.025Z,27.23
2022-12-03T12:08:31.318Z,26.63
2022-12-03T12:12:54.951Z,27.58
2022-12-03T12:16:51.205Z,26.95
2022-12-03T12:20:43.995Z,24.60
2022-12-03T12:24:43.803Z,24.80
2022-12-03T12:28:36.351Z,22.00
2022-12-03T12:32:31.680Z,21.02
2022-12-03T12:36:24.084Z,21.85
2022-12-03T12:40:18.460Z,24.20
2022-12-03T12:44:13.285Z,20.92
2022-12-03T12:48:14.653Z,20.90
2022-12-03T12:52:14.187Z,19.85
2022-12-03T12:56:06.593Z,20.40
2022-12-03T12:59:59.286Z,20.45
2022-12-03T13:03:53.214Z,21.20
2022-12-03T13:07:45.909Z,18.83
2022-12-03T13:11:46.007Z,17.63
2022-12-03T13:15:48.993Z,19.60
2022-12-03T13:19:47.594Z,19.77
2022-12-03T13:23:43.554Z,18.73
2022-12-03T13:27:36.311Z,24.08
2022-12-03T13:31:33.792Z,24.23
2022-12-03T13:35:32.052Z,19.45
2022-12-03T13:39:31.632Z,20.60
2022-12-03T13:43:24.362Z,18.70
2022-12-03T13:47:21.269Z,16.80
2022-12-03T13:51:24.914Z,16.77
2022-12-03T13:55:26.643Z,27.45
2022-12-03T13:59:25.754Z,19.90
2022-12-03T14:03:18.849Z,17.42
2022-12-03T14:07:11.485Z,16.92
2022-12-03T14:11:04.346Z,18.23
2022-12-03T14:14:57.660Z,16.83
2022-12-03T14:18:50.275Z,15.73
2022-12-03T14:22:42.760Z,16.00
2022-12-03T14:26:35.478Z,16.55
2022-12-03T14:30:28.051Z,15.23
2022-12-03T14:34:20.660Z,16.13
2022-12-03T14:38:13.191Z,14.82
2022-12-03T14:42:15.040Z,15.43
2022-12-03T14:46:07.917Z,14.90
2022-12-03T14:50:00.383Z,14.18
2022-12-03T14:53:52.951Z,13.40
2022-12-03T14:57:45.525Z,13.95
2022-12-03T15:01:38.058Z,14.27
2022-12-03T15:05:30.693Z,13.68
2022-12-03T15:09:23.321Z,13.60
2022-12-03T15:13:16.367Z,13.75
2022-12-03T15:17:09.055Z,12.45
2022-12-03T15:21:02.290Z,12.98
2022-12-03T15:24:54.903Z,13.65
2022-12-03T15:28:48.501Z,19.35
2022-12-03T15:32:41.322Z,15.57
2022-12-03T15:36:33.934Z,18.70
2022-12-03T15:40:27.496Z,16.02
2022-12-03T15:44:20.049Z,11.98
2022-12-03T15:48:13.880Z,12.55
2022-12-03T15:52:08.385Z,12.93
2022-12-03T15:56:01.117Z,13.32
2022-12-03T15:59:55.370Z,12.45
2022-12-03T16:03:48.544Z,12.70
2022-12-03T16:07:41.323Z,12.25
2022-12-03T16:11:34.330Z,12.27
2022-12-03T16:15:27.546Z,11.98
2022-12-03T16:19:20.825Z,13.43
2022-12-03T16:23:13.439Z,12.25
2022-12-03T16:27:06.549Z,12.13
2022-12-03T16:30:59.648Z,13.02
2022-12-03T16:34:53.682Z,12.43
2022-12-03T16:38:46.822Z,12.35
2022-12-03T16:42:40.258Z,13.63
2022-12-03T16:46:33.532Z,13.90
2022-12-03T16:50:29.903Z,12.98
2022-12-03T16:54:23.394Z,13.53
2022-12-03T16:58:16.350Z,13.15
2022-12-03T17:02:13.809Z,23.67
2022-12-03T17:06:07.086Z,26.35
2022-12-03T17:10:00.621Z,26.50
2022-12-03T17:13:53.223Z,30.10
2022-12-03T17:17:45.766Z,18.20
2022-12-03T17:21:38.838Z,15.80
2022-12-03T17:25:31.379Z,16.25
2022-12-03T17:29:23.916Z,15.32
2022-12-03T17:33:16.712Z,16.65
2022-12-03T17:37:09.428Z,16.08
2022-12-03T17:41:02.459Z,14.45
2022-12-03T17:44:54.930Z,15.00
2022-12-03T17:48:47.686Z,14.07
2022-12-03T17:52:40.417Z,14.43
2022-12-03T17:56:33.453Z,14.18
2022-12-03T18:00:26.230Z,13.82
2022-12-03T18:04:18.944Z,13.68
2022-12-03T18:08:11.940Z,14.50
2022-12-03T18:12:05.066Z,13.70
2022-12-03T18:15:57.682Z,13.18
2022-12-03T18:19:50.521Z,12.90
2022-12-03T18:23:43.535Z,14.52
2022-12-03T18:27:36.332Z,14.60
2022-12-03T18:31:28.978Z,14.93
2022-12-03T18:35:21.945Z,15.25
2022-12-03T18:39:26.652Z,13.73
2022-12-03T18:43:19.511Z,13.68
2022-12-03T18:47:18.836Z,13.23
2022-12-03T18:51:19.155Z,16.25
2022-12-03T18:55:18.966Z,14.80
2022-12-03T18:59:12.786Z,13.65
2022-12-03T19:03:07.629Z,16.13
2022-12-03T19:07:01.052Z,15.20
2022-12-03T19:10:59.736Z,15.23
2022-12-03T19:14:52.675Z,16.17
2022-12-03T19:18:47.220Z,16.17
2022-12-03T19:22:40.215Z,15.70
2022-12-03T19:26:33.020Z,16.15
2022-12-03T19:30:25.659Z,15.63
2022-12-03T19:34:19.677Z,16.33
2022-12-03T19:38:12.665Z,14.25
2022-12-03T19:42:05.914Z,15.82
2022-12-03T19:46:06.163Z,16.15
2022-12-03T19:49:59.192Z,15.60
2022-12-03T19:53:52.250Z,15.10
2022-12-03T19:57:45.288Z,15.77
2022-12-03T20:01:41.001Z,15.75
2022-12-03T20:05:38.904Z,16.10
2022-12-03T20:09:32.441Z,15.32
2022-12-03T20:13:25.651Z,15.93
2022-12-03T20:17:18.658Z,15.48
2022-12-03T20:21:13.406Z,16.30
2022-12-03T20:25:06.895Z,17.52
2022-12-03T20:29:00.207Z,17.20
2022-12-03T20:32:53.170Z,17.60
2022-12-03T20:36:46.352Z,16.05
2022-12-03T20:40:42.078Z,15.68
2022-12-03T20:44:34.693Z,16.88
2022-12-03T20:48:27.662Z,15.57
2022-12-03T20:52:20.766Z,16.70
2022-12-03T20:56:37.799Z,16.92
2022-12-03T21:00:31.805Z,16.77
2022-12-03T21:04:24.589Z,16.90
2022-12-03T21:08:33.017Z,17.65
2022-12-03T21:12:30.339Z,18.23
2022-12-03T21:16:51.913Z,18.92
2022-12-03T21:20:45.442Z,20.20
2022-12-03T21:24:38.187Z,17.80
2022-12-03T21:28:30.843Z,18.77
2022-12-03T21:32:23.585Z,18.27
2022-12-03T21:36:17.017Z,19.23
2022-12-03T21:40:10.233Z,19.55
2022-12-03T21:44:03.576Z,20.20
2022-12-03T21:47:56.531Z,19.88
2022-12-03T21:51:49.412Z,20.77
2022-12-03T21:55:42.941Z,19.25
2022-12-03T21:59:36.067Z,21.40
2022-12-03T22:03:28.750Z,19.88
2022-12-03T22:07:21.332Z,20.70
2022-12-03T22:11:20.791Z,20.52
2022-12-03T22:15:18.391Z,19.50
2022-12-03T22:19:11.125Z,19.98
2022-12-03T22:23:03.649Z,19.77
2022-12-03T22:26:56.351Z,19.40
2022-12-03T22:30:48.861Z,20.25
2022-12-03T22:34:44.381Z,19.08
2022-12-03T22:38:37.073Z,19.88
2022-12-03T22:42:29.524Z,19.27
2022-12-03T22:46:22.200Z,19.20
2022-12-03T22:50:15.206Z,18.52
2022-12-03T22:54:07.867Z,19.95
2022-12-03T22:58:00.116Z,19.33
2022-12-03T23:01:53.292Z,19.20
2022-12-03T23:05:46.086Z,20.10
2022-12-03T23:09:38.411Z,21.75
2022-12-03T23:13:32.120Z,21.40
2022-12-03T23:17:24.635Z,21.08
2022-12-03T23:21:28.525Z,21.23
2022-12-03T23:25:22.715Z,21.13
2022-12-03T23:29:15.258Z,22.85
2022-12-03T23:33:07.613Z,23.63
2022-12-03T23:37:00.293Z,21.63
2022-12-03T23:40:53.197Z,22.70
2022-12-03T23:44:45.639Z,21.00
2022-12-03T23:48:38.699Z,21.08
2022-12-03T23:52:31.765Z,20.88
2022-12-03T23:56:30.000Z,22.10
